Time,TemperatureF,DewpointF,PressureIn,WindDirection,WindDirectionDegrees,WindSpeedMPH,WindSpeedGustMPH,Humidity,HourlyPrecipIn,Conditions,Clouds,dailyrainin,SolarRadiationWatts/m^2,SoftwareType,DateUTC
2013-12-16 00:02:00,17.0,11.0,-100.00,West,279,5.0,15.0,76,0.00,,,0.00,0.000000,,2013-12-16 05:02:00,
2013-12-16 00:43:00,16.0,11.0,-100.00,WSW,254,4.0,10.0,80,0.00,,,-99.99,0.000000,,2013-12-16 05:43:00,
2013-12-16 00:53:00,16.0,11.0,-100.00,WSW,254,4.0,10.0,80,0.00,,,-99.99,0.000000,,2013-12-16 05:53:00,
2013-12-16 01:02:00,16.0,11.0,-100.00,WSW,254,4.0,10.0,80,0.00,,,-99.99,0.000000,,2013-12-16 06:02:00,
2013-12-16 01:42:00,15.0,11.0,-100.00,West,268,3.0,8.0,82,0.00,,,0.00,0.000000,,2013-12-16 06:42:00,
2013-12-16 01:52:00,15.0,11.0,-100.00,West,268,3.0,8.0,82,0.00,,,0.00,0.000000,,2013-12-16 06:52:00,
2013-12-16 02:02:00,15.0,11.0,-100.00,West,268,3.0,8.0,82,0.00,,,0.00,0.000000,,2013-12-16 07:02:00,
2013-12-16 02:43:00,15.0,10.0,-100.00,WSW,245,3.0,8.0,81,0.00,,,0.00,0.000000,,2013-12-16 07:43:00,
2013-12-16 02:52:00,15.0,10.0,-100.00,WSW,245,3.0,8.0,81,0.00,,,0.00,0.000000,,2013-12-16 07:52:00,
2013-12-16 03:02:00,15.0,10.0,-100.00,WSW,245,3.0,8.0,81,0.00,,,0.00,0.000000,,2013-12-16 08:02:00,
2013-12-16 03:42:00,14.0,10.0,-100.00,WSW,258,3.0,9.0,82,0.00,,,0.00,0.000000,,2013-12-16 08:42:00,
2013-12-16 03:52:00,14.0,10.0,-100.00,WSW,258,3.0,9.0,82,0.00,,,0.00,0.000000,,2013-12-16 08:52:00,
2013-12-16 04:03:00,14.0,10.0,-100.00,WSW,258,3.0,9.0,82,0.00,,,0.00,0.000000,,2013-12-16 09:03:00,
2013-12-16 04:43:00,14.0,9.0,-100.00,WSW,240,4.0,10.0,81,0.00,,,0.00,0.000000,,2013-12-16 09:43:00,
2013-12-16 04:53:00,14.0,9.0,-100.00,WSW,240,4.0,10.0,81,0.00,,,0.00,0.000000,,2013-12-16 09:53:00,
2013-12-16 05:03:00,14.0,9.0,-100.00,WSW,240,4.0,10.0,81,0.00,,,0.00,0.000000,,2013-12-16 10:03:00,
2013-12-16 05:43:00,13.0,8.0,-100.00,West,263,3.0,7.0,81,0.00,,,0.00,0.000000,,2013-12-16 10:43:00,
2013-12-16 05:53:00,13.0,8.0,-100.00,West,263,3.0,7.0,81,0.00,,,0.00,0.000000,,2013-12-16 10:53:00,
2013-12-16 06:03:00,13.0,8.0,-100.00,West,263,3.0,7.0,81,0.00,,,0.00,0.000000,,2013-12-16 11:03:00,
2013-12-16 06:42:00,13.0,8.0,-100.00,SW,215,4.0,9.0,81,0.00,,,0.00,0.000000,,2013-12-16 11:42:00,
2013-12-16 06:53:00,13.0,8.0,-100.00,SW,215,4.0,9.0,81,0.00,,,0.00,0.000000,,2013-12-16 11:53:00,
2013-12-16 07:02:00,13.0,8.0,-100.00,SW,215,4.0,9.0,81,0.00,,,0.00,0.000000,,2013-12-16 12:02:00,
2013-12-16 07:42:00,12.0,7.0,-100.00,SW,216,3.0,7.0,79,0.00,,,0.00,0.000000,,2013-12-16 12:42:00,
2013-12-16 07:52:00,12.0,7.0,-100.00,SW,216,3.0,7.0,79,0.00,,,0.00,0.000000,,2013-12-16 12:52:00,
2013-12-16 08:01:00,12.0,7.0,-100.00,SW,216,3.0,7.0,79,0.00,,,0.00,0.000000,,2013-12-16 13:01:00,
2013-12-16 08:42:00,12.0,7.0,-100.00,North,-999,0.0,5.0,80,0.00,,,0.00,2.000000,,2013-12-16 13:42:00,
2013-12-16 08:52:00,12.0,7.0,-100.00,North,-999,0.0,5.0,80,0.00,,,0.00,2.000000,,2013-12-16 13:52:00,
2013-12-16 09:02:00,12.0,7.0,-100.00,North,-999,0.0,5.0,80,0.00,,,0.00,2.000000,,2013-12-16 14:02:00,
2013-12-16 09:42:00,15.0,9.0,-100.00,SW,230,2.0,5.0,77,0.00,,,0.00,24.000000,,2013-12-16 14:42:00,
2013-12-16 09:52:00,15.0,9.0,-100.00,SW,230,2.0,5.0,77,0.00,,,0.00,24.000000,,2013-12-16 14:52:00,
2013-12-16 10:02:00,15.0,9.0,-100.00,SW,230,2.0,5.0,77,0.00,,,0.00,24.000000,,2013-12-16 15:02:00,
2013-12-16 10:43:00,18.0,9.0,-100.00,West,262,3.0,6.0,68,0.00,,,0.00,95.000000,,2013-12-16 15:43:00,
2013-12-16 10:54:00,18.0,9.0,-100.00,West,262,3.0,6.0,68,0.00,,,0.00,95.000000,,2013-12-16 15:54:00,
2013-12-16 11:04:00,18.0,9.0,-100.00,West,262,3.0,6.0,68,0.00,,,0.00,95.000000,,2013-12-16 16:04:00,
2013-12-16 11:43:00,18.0,9.0,-100.00,WNW,292,4.0,7.0,66,0.00,,,0.00,69.000000,,2013-12-16 16:43:00,
2013-12-16 11:53:00,18.0,9.0,-100.00,WNW,292,4.0,7.0,66,0.00,,,0.00,69.000000,,2013-12-16 16:53:00,
2013-12-16 12:03:00,18.0,9.0,-100.00,WNW,292,4.0,7.0,66,0.00,,,0.00,69.000000,,2013-12-16 17:03:00,
2013-12-16 12:43:00,20.0,9.0,-100.00,West,268,4.0,10.0,62,0.00,,,0.00,89.000000,,2013-12-16 17:43:00,
2013-12-16 12:52:00,20.0,9.0,-100.00,West,268,4.0,10.0,62,0.00,,,0.00,89.000000,,2013-12-16 17:52:00,
2013-12-16 13:02:00,20.0,9.0,-100.00,West,268,4.0,10.0,62,0.00,,,0.00,89.000000,,2013-12-16 18:02:00,
2013-12-16 13:42:00,23.0,9.0,-100.00,West,271,4.0,8.0,54,0.00,,,0.00,107.000000,,2013-12-16 18:42:00,
2013-12-16 13:52:00,23.0,9.0,-100.00,West,271,4.0,8.0,54,0.00,,,0.00,107.000000,,2013-12-16 18:52:00,
2013-12-16 14:02:00,23.0,9.0,-100.00,West,271,4.0,8.0,54,0.00,,,0.00,107.000000,,2013-12-16 19:02:00,
2013-12-16 14:42:00,21.0,8.0,-100.00,West,281,4.0,11.0,56,0.00,,,0.00,86.000000,,2013-12-16 19:42:00,
2013-12-16 14:52:00,21.0,8.0,-100.00,West,281,4.0,11.0,56,0.00,,,0.00,86.000000,,2013-12-16 19:52:00,
2013-12-16 15:02:00,21.0,8.0,-100.00,West,281,4.0,11.0,56,0.00,,,0.00,86.000000,,2013-12-16 20:02:00,
2013-12-16 15:42:00,20.0,8.0,-100.00,West,264,3.0,9.0,58,0.00,,,0.00,44.000000,,2013-12-16 20:42:00,
2013-12-16 15:53:00,20.0,8.0,-100.00,West,264,3.0,9.0,58,0.00,,,0.00,44.000000,,2013-12-16 20:53:00,
2013-12-16 16:02:00,20.0,8.0,-100.00,West,264,3.0,9.0,58,0.00,,,0.00,44.000000,,2013-12-16 21:02:00,
2013-12-16 16:44:00,19.0,9.0,-100.00,WNW,288,2.0,8.0,63,0.00,,,0.00,22.000000,,2013-12-16 21:44:00,
2013-12-16 16:54:00,19.0,9.0,-100.00,WNW,288,2.0,8.0,63,0.00,,,0.00,22.000000,,2013-12-16 21:54:00,
2013-12-16 17:03:00,19.0,9.0,-100.00,WNW,288,2.0,8.0,63,0.00,,,0.00,22.000000,,2013-12-16 22:03:00,
2013-12-16 17:43:00,16.0,7.0,-100.00,NNW,337,2.0,8.0,66,0.00,,,0.00,4.000000,,2013-12-16 22:43:00,
2013-12-16 17:53:00,16.0,7.0,-100.00,NNW,337,2.0,8.0,66,0.00,,,0.00,4.000000,,2013-12-16 22:53:00,
2013-12-16 18:02:00,16.0,7.0,-100.00,NNW,337,2.0,8.0,66,0.00,,,0.00,4.000000,,2013-12-16 23:02:00,
2013-12-16 18:43:00,12.0,6.0,-100.00,North,-999,0.0,3.0,75,0.00,,,0.00,0.000000,,2013-12-16 23:43:00,
2013-12-16 18:53:00,12.0,6.0,-100.00,North,-999,0.0,3.0,75,0.00,,,0.00,0.000000,,2013-12-16 23:53:00,
2013-12-16 19:02:00,12.0,6.0,-100.00,North,-999,0.0,3.0,75,0.00,,,0.00,0.000000,,2013-12-17 00:02:00,
2013-12-16 19:42:00,9.0,4.0,-100.00,North,-999,0.0,2.0,79,0.00,,,0.00,0.000000,,2013-12-17 00:42:00,
2013-12-16 19:52:00,9.0,4.0,-100.00,North,-999,0.0,2.0,79,0.00,,,0.00,0.000000,,2013-12-17 00:52:00,
2013-12-16 20:02:00,9.0,4.0,-100.00,North,-999,0.0,2.0,79,0.00,,,0.00,0.000000,,2013-12-17 01:02:00,
2013-12-16 20:42:00,7.0,3.0,-100.00,North,-999,0.0,3.0,83,0.00,,,0.00,0.000000,,2013-12-17 01:42:00,
2013-12-16 20:52:00,7.0,3.0,-100.00,North,-999,0.0,3.0,83,0.00,,,0.00,0.000000,,2013-12-17 01:52:00,
2013-12-16 21:01:00,7.0,3.0,-100.00,North,-999,0.0,3.0,83,0.00,,,0.00,0.000000,,2013-12-17 02:01:00,
2013-12-16 21:42:00,6.0,2.0,-100.00,North,-999,0.0,2.0,83,0.00,,,0.00,0.000000,,2013-12-17 02:42:00,
2013-12-16 21:52:00,6.0,2.0,-100.00,North,-999,0.0,2.0,83,0.00,,,0.00,0.000000,,2013-12-17 02:52:00,
2013-12-16 22:02:00,6.0,2.0,-100.00,North,-999,0.0,2.0,83,0.00,,,0.00,0.000000,,2013-12-17 03:02:00,
2013-12-16 22:44:00,5.0,1.0,-100.00,North,-999,0.0,0.0,82,0.00,,,0.00,0.000000,,2013-12-17 03:44:00,
2013-12-16 22:53:00,5.0,1.0,-100.00,North,-999,0.0,0.0,82,0.00,,,0.00,0.000000,,2013-12-17 03:53:00,
2013-12-16 23:03:00,5.0,1.0,-100.00,North,-999,0.0,0.0,82,0.00,,,0.00,0.000000,,2013-12-17 04:03:00,
2013-12-16 23:43:00,4.0,0.0,-100.00,North,-999,0.0,0.0,83,0.00,,,0.00,0.000000,,2013-12-17 04:43:00,
2013-12-16 23:53:00,4.0,0.0,-100.00,North,-999,0.0,0.0,83,0.00,,,0.00,0.000000,,2013-12-17 04:53:00,